KMLB

Melbourne International Airport

Melbourne, Florida, USA
METAR KMLB 162153Z 29009KT 6SM HZ SCT055 22/14 A3006 RMK AO2 SLP179 T02170144
Observed Flight Rules
Dec-16 @ 21:53 UTC (9 minutes ago) Visual Flight Rules
Wind Visibility Clouds Conditions
290° at 9 knots 6 miles
  • Scattered at 5,500' AGL
  • Haze
Temperatures Readings
Current 22°C / 72°F
Dewpoint 14°C / 57°F
Humidity 61%
Altimeter 30.06" Hg
Pressure 1017.9 hPa
Elevation 11
METAR KMLB 162153Z 29009KT 6SM HZ SCT055 22/14 A3006 RMK AO2 SLP179 T02170144
Observed Flight Rules
Dec-16 @ 21:53 UTC
(9 minutes ago)
VFR
Wind Visibility
290° at 9 knots 6 miles
Clouds
  • Scattered at 5,500' AGL
Conditions
  • Haze
Temperature Dewpoint
22°C / 72°F 14°C / 57°F
Humidity Altimeter Pressure
61% 30.06" Hg 1017.9 hPa